Time;durP1;ratioP1;P1;durP2;ratioP2;P2;SDS_P1;SDS_P2;PMS_P1;PMS_P2;Temp;Humidity;BMP_temperature;BMP_pressure;BME280_temperature;BME280_humidity;BME280_pressure;Samples;Min_cycle;Max_cycle;Signal;HPM_P1;HPM_P2
2022/11/25 00:02:10;;;;;;;;;;;;;;;6.13;70.42;100436.38;5363730;32;34382;-83
2022/11/25 00:05:12;;;;;;;;;;;;;;;6.77;68.39;100438.47;5351659;32;35064;-81
2022/11/25 00:08:14;;;;;;;;;;;;;;;6.55;68.79;100432.00;5366929;32;34926;-83
2022/11/25 00:11:16;;;;;;;;;;;;;;;6.32;69.61;100437.72;5356844;32;35234;-82
2022/11/25 00:14:18;;;;;;;;;;;;;;;6.05;70.24;100444.34;5370865;32;35377;-67
2022/11/25 00:17:20;;;;;;;;;;;;;;;5.73;71.84;100450.13;5333845;32;35571;-68
2022/11/25 00:20:21;;;;;;;;;;;;;;;6.44;69.42;100440.09;5333859;32;35492;-66
2022/11/25 00:23:23;;;;;;;;;;;;;;;6.05;70.23;100456.53;5365559;32;35187;-67
2022/11/25 00:26:33;;;;;;;;;;;;;;;6.14;69.49;100452.00;5338452;32;44690;-68
2022/11/25 00:29:35;;;;;;;;;;;;;;;6.40;69.71;100451.47;5356867;32;35325;-82
2022/11/25 00:32:37;;;;;;;;;;;;;;;7.03;67.53;100448.31;5346923;32;35407;-67
2022/11/25 00:35:38;;;;;;;;;;;;;;;6.96;67.14;100456.34;5370832;32;34828;-67
2022/11/25 00:38:40;;;;;;;;;;;;;;;6.05;69.72;100459.12;5353115;32;34768;-67
2022/11/25 00:45:03;;;;;;;;;;;;;;;6.33;69.71;100468.16;5365762;32;47232;-66
2022/11/25 00:48:05;;;;;;;;;;;;;;;6.36;68.49;100468.06;5359976;32;36767;-66
2022/11/25 00:51:07;;;;;;;;;;;;;;;6.28;70.14;100476.97;5367848;32;35027;-67
2022/11/25 00:54:09;;;;;;;;;;;;;;;6.34;69.13;100482.91;5356582;32;35892;-74
2022/11/25 00:57:11;;;;;;;;;;;;;;;6.56;69.32;100469.41;5356374;32;35509;-68
2022/11/25 01:00:13;;;;;;;;;;;;;;;6.95;67.76;100475.50;5369503;32;35326;-83
2022/11/25 01:03:15;;;;;;;;;;;;;;;6.68;68.61;100472.62;5347009;32;35265;-65
2022/11/25 01:06:17;;;;;;;;;;;;;;;6.49;68.82;100481.75;5366876;32;35668;-84
2022/11/25 01:09:19;;;;;;;;;;;;;;;6.41;70.24;100488.88;5334696;32;35879;-66
2022/11/25 01:12:21;;;;;;;;;;;;;;;6.31;69.53;100477.78;5347888;32;35264;-67
2022/11/25 01:15:23;;;;;;;;;;;;;;;5.59;72.43;100475.59;5334148;32;35037;-84
2022/11/25 01:18:24;;;;;;;;;;;;;;;6.28;70.06;100485.66;5352129;32;34942;-67
2022/11/25 01:21:28;;;;;;;;;;;;;;;6.80;68.38;100481.94;5354668;32;37730;-82
2022/11/25 01:24:29;;;;;;;;;;;;;;;7.35;66.71;100478.06;5359100;32;34548;-66
2022/11/25 01:27:32;;;;;;;;;;;;;;;7.30;65.80;100495.63;5351630;32;45147;-83
2022/11/25 01:30:34;;;;;;;;;;;;;;;7.03;66.00;100487.53;5363878;32;36400;-65
2022/11/25 01:33:42;;;;;;;;;;;;;;;7.33;65.57;100485.06;5363157;32;35868;-74
2022/11/25 01:36:44;;;;;;;;;;;;;;;7.44;65.60;100493.53;5353777;32;35138;-84
2022/11/25 01:39:46;;;;;;;;;;;;;;;7.15;66.24;100495.97;5330593;32;35269;-66
2022/11/25 01:42:50;;;;;;;;;;;;;;;6.45;68.12;100504.47;5367143;32;35229;-66
2022/11/25 01:45:52;;;;;;;;;;;;;;;6.79;68.64;100498.53;5366186;32;34532;-67
2022/11/25 01:49:02;;;;;;;;;;;;;;;7.37;66.09;100491.09;5374408;32;35442;-82
2022/11/25 01:52:13;;;;;;;;;;;;;;;6.95;67.58;100497.28;5338567;32;43525;-83
2022/11/25 01:55:16;;;;;;;;;;;;;;;7.31;66.14;100498.19;5361650;32;34822;-83
2022/11/25 01:58:22;;;;;;;;;;;;;;;7.25;65.98;100502.69;5346607;32;35690;-67
2022/11/25 02:01:24;;;;;;;;;;;;;;;6.96;67.02;100501.63;5360647;32;34820;-65
2022/11/25 02:04:27;;;;;;;;;;;;;;;7.38;65.54;100504.13;5349386;32;35570;-83
2022/11/25 02:07:32;;;;;;;;;;;;;;;7.27;65.31;100498.28;5336579;32;35036;-65
2022/11/25 02:10:34;;;;;;;;;;;;;;;6.71;67.57;100503.06;5364349;32;44985;-66
2022/11/25 02:13:35;;;;;;;;;;;;;;;7.22;66.08;100497.56;5341900;32;34865;-83
2022/11/25 02:16:37;;;;;;;;;;;;;;;6.78;67.12;100508.13;5352236;32;34370;-67
2022/11/25 02:19:55;;;;;;;;;;;;;;;6.41;68.08;100510.63;5327065;32;34667;-82
2022/11/25 02:23:06;;;;;;;;;;;;;;;6.86;67.34;100513.16;5335988;32;34993;-66
2022/11/25 02:26:08;;;;;;;;;;;;;;;7.18;65.97;100511.59;5376888;32;44735;-83
2022/11/25 02:29:10;;;;;;;;;;;;;;;7.24;65.34;100512.31;5336678;32;34260;-75
2022/11/25 02:32:12;;;;;;;;;;;;;;;7.28;65.19;100502.66;5343948;32;35188;-82
2022/11/25 02:35:23;;;;;;;;;;;;;;;7.43;64.88;100504.87;5366582;32;35013;-83
2022/11/25 02:38:35;;;;;;;;;;;;;;;7.25;64.92;100505.31;5352937;32;35871;-66
2022/11/25 02:41:42;;;;;;;;;;;;;;;7.07;65.98;100509.22;5357584;32;44576;-68
2022/11/25 02:44:44;;;;;;;;;;;;;;;7.28;65.19;100500.03;5361870;32;35428;-83
2022/11/25 02:47:46;;;;;;;;;;;;;;;7.35;64.31;100509.44;5368837;32;35370;-83
2022/11/25 02:50:47;;;;;;;;;;;;;;;7.11;65.23;100508.25;5367733;32;34257;-67
2022/11/25 02:53:49;;;;;;;;;;;;;;;7.28;64.90;100519.19;5339014;32;35707;-83
2022/11/25 02:56:53;;;;;;;;;;;;;;;6.43;66.94;100510.59;5359633;32;36092;-66
2022/11/25 02:59:55;;;;;;;;;;;;;;;6.98;66.56;100505.06;5363417;32;35451;-83
2022/11/25 03:02:57;;;;;;;;;;;;;;;7.23;65.28;100502.75;5369329;32;34980;-83
2022/11/25 03:05:59;;;;;;;;;;;;;;;7.23;65.27;100509.72;5348783;32;34285;-75
2022/11/25 03:09:01;;;;;;;;;;;;;;;6.97;66.12;100511.19;5349902;32;44621;-67
2022/11/25 03:12:21;;;;;;;;;;;;;;;7.10;65.27;100518.75;5347303;32;35340;-82
2022/11/25 03:15:23;;;;;;;;;;;;;;;7.17;65.11;100517.72;5363586;32;35611;-82
2022/11/25 03:18:26;;;;;;;;;;;;;;;7.14;64.96;100525.59;5360977;32;34980;-74
2022/11/25 03:21:27;;;;;;;;;;;;;;;6.96;65.13;100534.75;5333967;32;35057;-83
2022/11/25 03:24:29;;;;;;;;;;;;;;;6.65;66.26;100543.22;5347993;32;34748;-82
2022/11/25 03:27:35;;;;;;;;;;;;;;;6.97;65.86;100549.53;5347383;32;44650;-68
2022/11/25 03:30:37;;;;;;;;;;;;;;;6.93;66.23;100566.16;5358185;32;34633;-66
2022/11/25 03:33:39;;;;;;;;;;;;;;;7.15;65.18;100561.31;5360591;32;35020;-67
2022/11/25 03:36:41;;;;;;;;;;;;;;;6.87;65.70;100567.13;5363904;32;35488;-84
2022/11/25 03:39:43;;;;;;;;;;;;;;;6.30;68.07;100571.75;5347545;32;35003;-83
2022/11/25 03:42:44;;;;;;;;;;;;;;;6.71;66.69;100573.59;5360782;32;34556;-82
2022/11/25 03:45:49;;;;;;;;;;;;;;;6.19;68.28;100580.66;5362062;32;34880;-82
2022/11/25 03:48:51;;;;;;;;;;;;;;;6.78;66.75;100576.03;5332959;32;35189;-73
2022/11/25 03:51:53;;;;;;;;;;;;;;;6.83;66.43;100573.34;5361240;32;35160;-82
2022/11/25 03:54:55;;;;;;;;;;;;;;;5.68;69.60;100561.50;5359529;32;35028;-65
2022/11/25 03:57:57;;;;;;;;;;;;;;;5.28;70.84;100575.16;5354379;32;35016;-66
2022/11/25 04:00:59;;;;;;;;;;;;;;;5.47;70.58;100582.69;5363081;32;34398;-68
2022/11/25 04:04:02;;;;;;;;;;;;;;;5.11;72.45;100590.16;5348347;32;44336;-82
2022/11/25 04:07:03;;;;;;;;;;;;;;;5.89;68.85;100570.72;5367408;32;35638;-82
2022/11/25 04:10:06;;;;;;;;;;;;;;;5.35;71.37;100576.78;5354708;32;35011;-81
2022/11/25 04:13:09;;;;;;;;;;;;;;;5.29;71.14;100589.06;5361480;32;34362;-82
2022/11/25 04:16:19;;;;;;;;;;;;;;;5.51;70.52;100593.06;5371182;32;35504;-66
2022/11/25 04:19:21;;;;;;;;;;;;;;;5.40;71.24;100598.41;5320122;32;35194;-66
2022/11/25 04:22:23;;;;;;;;;;;;;;;5.96;69.68;100578.44;5361793;32;35812;-66
2022/11/25 04:25:24;;;;;;;;;;;;;;;5.53;70.18;100593.88;5349279;32;35991;-65
2022/11/25 04:28:26;;;;;;;;;;;;;;;5.53;70.49;100598.25;5371540;32;34831;-74
2022/11/25 04:31:28;;;;;;;;;;;;;;;5.61;70.42;100599.00;5346705;32;35466;-65
2022/11/25 04:34:30;;;;;;;;;;;;;;;6.04;68.11;100601.78;5353918;32;36117;-83
2022/11/25 04:37:32;;;;;;;;;;;;;;;5.87;68.98;100609.87;5365491;32;44537;-83
2022/11/25 04:40:34;;;;;;;;;;;;;;;5.75;68.91;100619.66;5362360;32;35175;-83
2022/11/25 04:43:36;;;;;;;;;;;;;;;6.65;66.17;100618.09;5366888;32;34941;-66
2022/11/25 04:46:38;;;;;;;;;;;;;;;6.76;65.65;100619.63;5360556;32;37149;-83
2022/11/25 04:49:41;;;;;;;;;;;;;;;6.29;67.41;100623.09;5369019;32;34876;-76
2022/11/25 04:52:43;;;;;;;;;;;;;;;6.68;65.50;100621.50;5357282;32;34525;-67
2022/11/25 04:55:45;;;;;;;;;;;;;;;6.96;64.77;100628.81;5335298;32;35262;-83
2022/11/25 05:02:12;;;;;;;;;;;;;;;6.89;64.38;100633.31;5356832;32;45185;-83
2022/11/25 05:05:14;;;;;;;;;;;;;;;7.38;62.39;100632.25;5362136;32;34552;-66
2022/11/25 05:08:16;;;;;;;;;;;;;;;7.32;62.60;100648.06;5351931;32;35687;-66
2022/11/25 05:11:18;;;;;;;;;;;;;;;7.05;63.22;100652.12;5367809;32;34944;-65
2022/11/25 05:14:21;;;;;;;;;;;;;;;7.01;63.44;100651.31;5351839;32;34356;-83
2022/11/25 05:17:24;;;;;;;;;;;;;;;6.88;63.79;100659.44;5359393;32;35247;-84
2022/11/25 05:20:26;;;;;;;;;;;;;;;7.01;63.66;100660.91;5328819;32;34233;-68
2022/11/25 05:23:28;;;;;;;;;;;;;;;6.86;64.04;100667.31;5349047;32;35080;-83
2022/11/25 05:26:30;;;;;;;;;;;;;;;7.02;63.65;100678.34;5361443;32;34070;-66
2022/11/25 05:29:31;;;;;;;;;;;;;;;6.83;64.22;100683.06;5359073;32;44457;-82
2022/11/25 05:32:33;;;;;;;;;;;;;;;7.00;63.69;100674.87;5363311;32;34801;-66
2022/11/25 05:35:35;;;;;;;;;;;;;;;7.06;63.76;100680.84;5349490;32;34844;-82
2022/11/25 05:38:37;;;;;;;;;;;;;;;7.10;63.68;100692.13;5350469;32;35072;-65
2022/11/25 05:41:39;;;;;;;;;;;;;;;7.21;63.43;100691.88;5357417;32;35433;-83
2022/11/25 05:44:41;;;;;;;;;;;;;;;7.12;63.44;100692.94;5359770;32;34853;-83
2022/11/25 05:47:43;;;;;;;;;;;;;;;7.11;63.59;100698.19;5364786;32;35399;-66
2022/11/25 05:50:45;;;;;;;;;;;;;;;7.32;62.81;100703.84;5352687;32;34697;-67
2022/11/25 05:53:47;;;;;;;;;;;;;;;7.20;63.01;100705.84;5366406;32;36226;-66
2022/11/25 05:56:48;;;;;;;;;;;;;;;7.37;62.81;100711.59;5360451;32;34874;-85
2022/11/25 05:59:50;;;;;;;;;;;;;;;7.11;63.72;100716.50;5357147;32;35063;-67
2022/11/25 06:02:52;;;;;;;;;;;;;;;7.26;63.08;100716.19;5374340;32;34913;-66
2022/11/25 06:05:55;;;;;;;;;;;;;;;7.31;62.54;100716.97;5353560;32;35738;-85
2022/11/25 06:08:57;;;;;;;;;;;;;;;7.12;63.20;100724.31;5373613;32;35514;-82
2022/11/25 06:11:59;;;;;;;;;;;;;;;7.19;62.98;100731.13;5353018;32;35454;-74
2022/11/25 06:15:01;;;;;;;;;;;;;;;7.21;62.91;100734.59;5372043;32;42927;-68
2022/11/25 06:18:03;;;;;;;;;;;;;;;7.25;62.81;100745.84;5352725;32;35806;-65
2022/11/25 06:21:05;;;;;;;;;;;;;;;7.27;62.87;100746.66;5349912;32;34419;-85
2022/11/25 06:24:07;;;;;;;;;;;;;;;7.17;63.54;100756.44;5381720;32;34540;-67
2022/11/25 06:27:09;;;;;;;;;;;;;;;7.34;63.08;100753.47;5367001;32;35347;-82
2022/11/25 06:30:12;;;;;;;;;;;;;;;7.28;62.53;100751.03;5383169;32;35390;-83
2022/11/25 06:33:14;;;;;;;;;;;;;;;7.05;63.77;100757.53;5360543;32;35837;-82
2022/11/25 06:36:17;;;;;;;;;;;;;;;6.86;64.64;100765.75;5365382;32;34858;-66
2022/11/25 06:39:19;;;;;;;;;;;;;;;6.60;65.32;100768.81;5350250;32;35377;-66
2022/11/25 06:42:21;;;;;;;;;;;;;;;5.95;67.96;100764.56;5359532;32;35619;-83
2022/11/25 06:45:23;;;;;;;;;;;;;;;6.18;67.64;100761.66;5376069;32;35110;-67
2022/11/25 06:48:26;;;;;;;;;;;;;;;6.21;67.82;100773.78;5363579;32;35371;-82
2022/11/25 06:51:28;;;;;;;;;;;;;;;6.16;68.65;100772.97;5363206;32;34651;-82
2022/11/25 06:54:30;;;;;;;;;;;;;;;6.75;65.88;100776.37;5350666;32;34723;-74
2022/11/25 06:57:32;;;;;;;;;;;;;;;7.37;63.43;100776.13;5368676;32;45962;-83
2022/11/25 07:00:34;;;;;;;;;;;;;;;7.65;61.77;100777.25;5368700;32;36987;-67
2022/11/25 07:03:36;;;;;;;;;;;;;;;7.51;62.32;100785.41;5359814;32;34900;-82
2022/11/25 07:06:38;;;;;;;;;;;;;;;6.56;65.66;100795.84;5377227;32;35476;-84
2022/11/25 07:09:40;;;;;;;;;;;;;;;6.91;65.54;100797.88;5371112;32;35360;-83
2022/11/25 07:12:41;;;;;;;;;;;;;;;6.74;65.87;100790.31;5377748;32;34966;-68
2022/11/25 07:15:43;;;;;;;;;;;;;;;6.92;65.61;100802.22;5367590;32;35316;-84
2022/11/25 07:18:45;;;;;;;;;;;;;;;7.26;64.65;100799.84;5344903;32;34984;-82
2022/11/25 07:21:47;;;;;;;;;;;;;;;6.75;66.64;100800.75;5371785;32;35942;-83
2022/11/25 07:24:49;;;;;;;;;;;;;;;6.76;66.98;100801.59;5370287;32;35060;-66
2022/11/25 07:27:51;;;;;;;;;;;;;;;7.19;64.52;100799.09;5378551;32;35145;-83
2022/11/25 07:30:53;;;;;;;;;;;;;;;7.59;64.08;100809.63;5368986;32;34946;-83
2022/11/25 07:34:22;;;;;;;;;;;;;;;7.75;63.30;100809.34;5364022;32;36263;-82
2022/11/25 07:37:24;;;;;;;;;;;;;;;7.86;62.99;100813.47;5370801;32;36154;-83
2022/11/25 07:40:26;;;;;;;;;;;;;;;8.49;60.51;100808.59;5368159;32;34077;-83
2022/11/25 07:43:28;;;;;;;;;;;;;;;8.33;60.96;100813.31;5365360;32;34993;-83
2022/11/25 07:46:31;;;;;;;;;;;;;;;8.58;59.88;100798.78;5364320;32;34946;-83
2022/11/25 07:49:33;;;;;;;;;;;;;;;8.51;59.31;100812.91;5384259;32;44616;-67
2022/11/25 07:52:39;;;;;;;;;;;;;;;8.32;59.92;100817.69;5365666;32;35817;-82
2022/11/25 07:55:41;;;;;;;;;;;;;;;8.72;59.44;100803.66;5373195;32;34761;-67
2022/11/25 07:58:43;;;;;;;;;;;;;;;8.66;59.17;100798.56;5374723;32;35367;-84
2022/11/25 08:01:50;;;;;;;;;;;;;;;8.71;59.44;100803.72;5360835;32;34955;-67
2022/11/25 08:04:52;;;;;;;;;;;;;;;9.03;58.35;100803.75;5367746;32;34804;-84
2022/11/25 08:07:54;;;;;;;;;;;;;;;8.90;57.97;100799.72;5368980;32;36705;-82
2022/11/25 08:10:56;;;;;;;;;;;;;;;9.33;56.92;100804.69;5378230;32;34709;-75
2022/11/25 08:14:00;;;;;;;;;;;;;;;9.11;56.60;100814.03;5368124;32;34840;-64
2022/11/25 08:17:04;;;;;;;;;;;;;;;9.07;56.97;100818.47;5373024;32;44718;-62
2022/11/25 08:20:06;;;;;;;;;;;;;;;8.74;58.79;100819.34;5353700;32;35191;-64
2022/11/25 08:23:08;;;;;;;;;;;;;;;9.25;57.21;100824.16;5371612;32;34635;-65
2022/11/25 08:26:11;;;;;;;;;;;;;;;9.10;57.71;100826.28;5366083;32;35275;-64
2022/11/25 08:29:14;;;;;;;;;;;;;;;8.92;58.79;100825.00;5370620;32;35782;-64
2022/11/25 08:32:16;;;;;;;;;;;;;;;9.13;58.43;100826.19;5364119;32;35305;-74
2022/11/25 08:35:18;;;;;;;;;;;;;;;9.56;56.97;100827.66;5354528;32;34501;-63
2022/11/25 08:38:20;;;;;;;;;;;;;;;9.64;56.35;100824.81;5362783;32;34849;-63
2022/11/25 08:41:24;;;;;;;;;;;;;;;8.15;60.00;100831.16;5378545;32;35507;-64
2022/11/25 08:44:28;;;;;;;;;;;;;;;8.63;59.92;100835.31;5370450;32;34464;-74
2022/11/25 08:47:30;;;;;;;;;;;;;;;8.62;59.87;100833.59;5378556;32;34450;-73
2022/11/25 08:50:32;;;;;;;;;;;;;;;8.40;60.97;100841.13;5367845;32;44555;-63
2022/11/25 08:53:35;;;;;;;;;;;;;;;8.27;61.43;100848.34;5382240;32;34895;-63
2022/11/25 08:56:37;;;;;;;;;;;;;;;8.95;60.03;100831.91;5361022;32;35632;-73
2022/11/25 08:59:39;;;;;;;;;;;;;;;9.37;58.37;100829.94;5371276;32;35333;-74
2022/11/25 09:02:41;;;;;;;;;;;;;;;9.05;58.76;100825.53;5363951;32;35224;-74
2022/11/25 09:05:43;;;;;;;;;;;;;;;9.71;57.01;100823.75;5346848;32;34471;-64
2022/11/25 09:08:46;;;;;;;;;;;;;;;8.86;60.18;100829.53;5380241;32;34630;-74
2022/11/25 09:11:48;;;;;;;;;;;;;;;9.92;57.38;100824.91;5357990;32;35124;-75
2022/11/25 09:14:50;;;;;;;;;;;;;;;10.21;55.96;100822.25;5380353;32;34585;-73
2022/11/25 09:18:03;;;;;;;;;;;;;;;10.37;55.45;100820.06;5364595;32;35855;-73
2022/11/25 09:21:09;;;;;;;;;;;;;;;9.93;56.26;100824.00;5318850;32;46980;-75
2022/11/25 09:24:11;;;;;;;;;;;;;;;9.36;57.85;100829.97;5363068;32;35205;-63
2022/11/25 09:27:13;;;;;;;;;;;;;;;9.92;57.23;100832.78;5361128;32;34793;-75
2022/11/25 09:30:15;;;;;;;;;;;;;;;10.27;56.31;100831.75;5381752;32;35551;-73
2022/11/25 09:33:17;;;;;;;;;;;;;;;10.28;56.37;100820.31;5363635;32;34264;-63
2022/11/25 09:36:19;;;;;;;;;;;;;;;10.36;55.63;100827.97;5358128;32;35286;-72
2022/11/25 09:39:26;;;;;;;;;;;;;;;10.33;56.02;100825.44;5343375;32;35502;-74
2022/11/25 09:46:41;;;;;;;;;;;;;;;10.24;56.42;100823.94;5363985;32;34219;-74
2022/11/25 09:49:59;;;;;;;;;;;;;;;10.46;56.10;100824.16;5362338;32;34889;-64
2022/11/25 09:53:07;;;;;;;;;;;;;;;10.45;55.63;100818.03;5361835;32;34278;-64
2022/11/25 09:56:28;;;;;;;;;;;;;;;10.76;54.80;100815.28;5356318;32;44506;-73
2022/11/25 09:59:31;;;;;;;;;;;;;;;11.11;53.93;100805.34;5334573;32;35367;-64
2022/11/25 10:02:33;;;;;;;;;;;;;;;11.19;54.15;100803.28;5356515;32;44456;-63
2022/11/25 10:05:36;;;;;;;;;;;;;;;11.06;54.18;100804.62;5351223;32;35126;-74
2022/11/25 10:08:39;;;;;;;;;;;;;;;11.36;53.37;100800.06;5364464;32;34917;-75
2022/11/25 10:11:55;;;;;;;;;;;;;;;11.22;54.08;100803.19;5358809;32;34880;-64
2022/11/25 10:15:26;;;;;;;;;;;;;;;11.99;51.93;100797.78;5346705;32;36930;-64
2022/11/25 10:18:29;;;;;;;;;;;;;;;11.62;52.84;100804.41;5362033;32;36310;-72
2022/11/25 10:21:31;;;;;;;;;;;;;;;12.04;52.48;100807.22;5331522;32;45421;-63
2022/11/25 10:24:33;;;;;;;;;;;;;;;12.71;50.92;100794.00;5353634;32;34153;-73
2022/11/25 10:28:01;;;;;;;;;;;;;;;13.26;49.67;100796.94;5377322;32;34984;-75
2022/11/25 10:31:03;;;;;;;;;;;;;;;14.01;47.12;100793.53;5359938;32;45009;-73
2022/11/25 10:34:21;;;;;;;;;;;;;;;13.88;46.79;100794.19;5381581;32;35784;-64
2022/11/25 10:37:28;;;;;;;;;;;;;;;14.17;45.96;100796.34;5367265;32;34936;-74
2022/11/25 10:40:30;;;;;;;;;;;;;;;14.16;45.83;100788.47;5366427;32;34604;-64
2022/11/25 10:43:32;;;;;;;;;;;;;;;13.57;47.11;100795.59;5382243;32;44525;-73
2022/11/25 10:46:40;;;;;;;;;;;;;;;13.10;48.43;100787.94;5363301;32;34258;-74
2022/11/25 10:50:06;;;;;;;;;;;;;;;13.72;46.53;100792.28;5372700;32;45222;-74
2022/11/25 10:53:12;;;;;;;;;;;;;;;12.77;49.01;100808.69;5352808;32;34303;-74
2022/11/25 10:56:17;;;;;;;;;;;;;;;12.68;49.58;100804.66;5360984;32;36990;-73
2022/11/25 10:59:24;;;;;;;;;;;;;;;12.32;50.22;100807.00;5381371;32;35502;-74
2022/11/25 11:02:27;;;;;;;;;;;;;;;13.44;47.65;100800.56;5345387;32;35419;-64
2022/11/25 11:05:29;;;;;;;;;;;;;;;13.07;48.17;100808.31;5356086;32;34256;-63
2022/11/25 11:08:38;;;;;;;;;;;;;;;12.86;49.18;100804.81;5363894;32;44919;-65
2022/11/25 11:11:47;;;;;;;;;;;;;;;13.29;47.90;100809.16;5359717;32;34868;-64
2022/11/25 11:14:50;;;;;;;;;;;;;;;14.84;44.12;100802.78;5364084;32;36788;-64
2022/11/25 11:17:52;;;;;;;;;;;;;;;14.36;44.32;100806.87;5364795;32;35441;-65
2022/11/25 11:20:55;;;;;;;;;;;;;;;14.18;44.56;100813.06;5364406;32;33893;-64
2022/11/25 11:23:58;;;;;;;;;;;;;;;13.42;46.77;100818.25;5351369;32;35130;-72
2022/11/25 11:27:20;;;;;;;;;;;;;;;12.35;49.57;100827.09;5380020;32;35361;-74
2022/11/25 11:30:24;;;;;;;;;;;;;;;12.41;49.56;100819.81;5363284;32;35188;-77
2022/11/25 11:33:29;;;;;;;;;;;;;;;13.64;47.43;100819.94;5347900;32;35560;-65
2022/11/25 11:36:30;;;;;;;;;;;;;;;13.42;47.52;100817.41;5385225;32;35799;-64
2022/11/25 11:39:36;;;;;;;;;;;;;;;14.90;44.17;100813.06;5354625;32;44674;-76
2022/11/25 11:42:57;;;;;;;;;;;;;;;13.90;45.29;100809.03;5371385;32;35601;-75
2022/11/25 11:46:19;;;;;;;;;;;;;;;14.13;45.21;100807.13;5359287;32;34686;-72
2022/11/25 11:49:25;;;;;;;;;;;;;;;14.79;43.82;100808.31;5360796;32;37234;-75
2022/11/25 11:52:37;;;;;;;;;;;;;;;16.01;41.21;100798.41;5358930;32;44997;-63
2022/11/25 11:55:57;;;;;;;;;;;;;;;15.77;41.08;100805.88;5342364;32;34400;-64
2022/11/25 11:59:41;;;;;;;;;;;;;;;15.08;43.19;100808.66;5376483;32;35974;-75
2022/11/25 12:02:45;;;;;;;;;;;;;;;16.11;40.96;100802.28;5375597;32;37579;-77
2022/11/25 12:05:52;;;;;;;;;;;;;;;17.00;38.95;100797.19;5366472;32;34787;-75
2022/11/25 12:09:02;;;;;;;;;;;;;;;16.09;40.46;100801.47;5358987;32;34744;-64
2022/11/25 12:12:05;;;;;;;;;;;;;;;15.27;42.27;100798.81;5349958;32;44825;-65
2022/11/25 12:15:26;;;;;;;;;;;;;;;15.42;42.29;100805.97;5367138;32;35020;-66
2022/11/25 12:18:43;;;;;;;;;;;;;;;15.70;42.18;100809.81;5366504;32;35687;-73
2022/11/25 12:21:45;;;;;;;;;;;;;;;14.98;43.95;100804.75;5355973;32;34487;-74
2022/11/25 12:24:51;;;;;;;;;;;;;;;13.97;46.62;100810.47;5376720;32;34917;-64
2022/11/25 12:28:14;;;;;;;;;;;;;;;14.97;44.58;100810.97;5365021;32;35214;-65
2022/11/25 12:31:23;;;;;;;;;;;;;;;15.21;44.33;100799.13;5374518;32;34339;-65
2022/11/25 12:34:37;;;;;;;;;;;;;;;15.80;42.66;100792.50;5351409;32;35149;-74
2022/11/25 12:37:59;;;;;;;;;;;;;;;16.04;41.50;100800.91;5343667;32;45093;-75
2022/11/25 12:41:19;;;;;;;;;;;;;;;16.33;41.35;100798.41;5366593;32;43884;-73
2022/11/25 12:44:43;;;;;;;;;;;;;;;17.95;38.50;100786.09;5354680;32;34869;-63
2022/11/25 12:47:45;;;;;;;;;;;;;;;17.99;38.30;100776.97;5341230;32;34605;-63
2022/11/25 12:50:50;;;;;;;;;;;;;;;18.35;36.71;100782.59;5373366;32;35578;-75
2022/11/25 12:54:07;;;;;;;;;;;;;;;20.63;33.33;100763.97;5356419;32;34773;-65
2022/11/25 12:57:12;;;;;;;;;;;;;;;21.82;30.95;100760.06;5373629;32;45314;-74
2022/11/25 13:00:19;;;;;;;;;;;;;;;18.98;34.85;100775.75;5350500;32;35791;-67
2022/11/25 13:03:55;;;;;;;;;;;;;;;20.04;33.56;100781.72;5338302;32;35905;-65
2022/11/25 13:06:57;;;;;;;;;;;;;;;18.73;35.65;100776.53;5365463;32;35322;-76
2022/11/25 13:10:18;;;;;;;;;;;;;;;18.98;35.24;100780.22;5356185;32;35206;-74
2022/11/25 13:13:30;;;;;;;;;;;;;;;16.46;39.24;100789.66;5370188;32;35628;-75
2022/11/25 13:16:32;;;;;;;;;;;;;;;15.39;42.02;100789.34;5342704;32;46835;-66
2022/11/25 13:19:36;;;;;;;;;;;;;;;14.44;44.41;100785.38;5317992;32;801738;-65
2022/11/25 13:22:37;;;;;;;;;;;;;;;13.51;47.00;100790.56;5372588;32;35740;-74
2022/11/25 13:25:40;;;;;;;;;;;;;;;15.01;43.66;100780.78;5335833;32;34611;-64
2022/11/25 13:28:42;;;;;;;;;;;;;;;14.53;44.84;100799.00;5356705;32;35128;-64
2022/11/25 13:31:53;;;;;;;;;;;;;;;14.25;45.52;100790.69;5358075;32;35603;-74
2022/11/25 13:35:19;;;;;;;;;;;;;;;14.45;45.19;100795.88;5359979;32;35149;-75
2022/11/25 13:38:39;;;;;;;;;;;;;;;13.92;46.06;100790.50;5366468;32;35227;-64
2022/11/25 13:41:45;;;;;;;;;;;;;;;14.16;46.33;100796.37;5359732;32;34560;-73
2022/11/25 13:44:48;;;;;;;;;;;;;;;13.73;46.90;100806.34;5353317;32;34735;-74
2022/11/25 13:47:50;;;;;;;;;;;;;;;13.39;48.01;100809.59;5355158;32;35007;-74
2022/11/25 13:51:11;;;;;;;;;;;;;;;12.99;48.84;100819.19;5360357;32;34670;-65
2022/11/25 13:54:14;;;;;;;;;;;;;;;12.80;49.45;100816.47;5367114;32;35358;-64
2022/11/25 13:57:17;;;;;;;;;;;;;;;13.27;48.58;100821.56;5340744;32;35984;-64
2022/11/25 14:00:19;;;;;;;;;;;;;;;13.38;48.34;100821.09;5356682;32;34980;-72
2022/11/25 14:03:21;;;;;;;;;;;;;;;13.36;48.39;100821.16;5352713;32;35034;-75
2022/11/25 14:06:29;;;;;;;;;;;;;;;13.71;48.13;100827.50;5368457;32;35496;-64
2022/11/25 14:09:43;;;;;;;;;;;;;;;14.27;46.56;100831.13;5361715;32;44891;-65
2022/11/25 14:13:01;;;;;;;;;;;;;;;13.03;49.36;100836.63;5350764;32;35106;-74
2022/11/25 14:16:20;;;;;;;;;;;;;;;13.12;49.46;100830.97;5365106;32;46077;-65
2022/11/25 14:19:30;;;;;;;;;;;;;;;12.94;50.34;100837.84;5320243;32;35255;-74
2022/11/25 14:22:52;;;;;;;;;;;;;;;12.56;51.81;100847.37;5331074;32;36388;-63
2022/11/25 14:26:00;;;;;;;;;;;;;;;12.89;50.88;100845.12;5368029;32;37140;-74
2022/11/25 14:29:04;;;;;;;;;;;;;;;12.66;51.44;100853.09;5359585;32;44674;-64
2022/11/25 14:32:13;;;;;;;;;;;;;;;13.07;50.48;100845.25;5366423;32;35499;-66
2022/11/25 14:35:37;;;;;;;;;;;;;;;12.79;50.93;100848.19;5348348;32;35029;-64
2022/11/25 14:38:52;;;;;;;;;;;;;;;13.12;50.32;100836.22;5354917;32;37770;-64
2022/11/25 14:42:07;;;;;;;;;;;;;;;12.05;53.21;100853.75;5371164;32;35040;-74
2022/11/25 14:45:38;;;;;;;;;;;;;;;12.30;52.88;100852.78;5348727;32;46898;-72
2022/11/25 14:48:40;;;;;;;;;;;;;;;12.59;52.29;100852.50;5353640;32;44711;-74
2022/11/25 14:51:44;;;;;;;;;;;;;;;12.68;52.05;100853.91;5365970;32;35700;-76
2022/11/25 14:54:46;;;;;;;;;;;;;;;13.03;50.91;100855.09;5333891;32;34354;-76
2022/11/25 14:57:48;;;;;;;;;;;;;;;13.04;51.10;100853.31;5338943;32;34745;-63
2022/11/25 15:01:00;;;;;;;;;;;;;;;11.84;53.80;100863.28;5357555;32;34926;-64
2022/11/25 15:04:09;;;;;;;;;;;;;;;11.95;53.61;100869.94;5363108;32;43657;-65
2022/11/25 15:07:15;;;;;;;;;;;;;;;11.67;55.17;100863.00;5336667;32;34614;-64
2022/11/25 15:10:29;;;;;;;;;;;;;;;12.08;53.84;100866.78;5343820;32;34309;-76
2022/11/25 15:13:38;;;;;;;;;;;;;;;12.36;53.25;100861.31;5358845;32;43554;-64
2022/11/25 15:16:40;;;;;;;;;;;;;;;12.94;51.83;100861.59;5358658;32;35533;-63
2022/11/25 15:19:44;;;;;;;;;;;;;;;12.68;52.43;100870.56;5331223;32;34737;-63
2022/11/25 15:22:47;;;;;;;;;;;;;;;12.10;53.65;100859.66;5351615;32;35644;-74
2022/11/25 15:25:50;;;;;;;;;;;;;;;12.20;53.87;100866.31;5349406;32;35042;-64
2022/11/25 15:28:55;;;;;;;;;;;;;;;11.68;55.50;100867.34;5348418;32;35334;-75
2022/11/25 15:31:57;;;;;;;;;;;;;;;12.07;54.52;100866.84;5354902;32;35084;-74
2022/11/25 15:35:00;;;;;;;;;;;;;;;12.15;54.18;100884.06;5350444;32;34732;-73
2022/11/25 15:38:18;;;;;;;;;;;;;;;12.27;54.31;100880.13;5344141;32;44345;-75
2022/11/25 15:41:24;;;;;;;;;;;;;;;12.15;54.81;100881.44;5366944;32;35518;-74
2022/11/25 15:44:28;;;;;;;;;;;;;;;10.99;58.28;100889.91;5353501;32;34584;-71
2022/11/25 15:47:30;;;;;;;;;;;;;;;11.69;56.87;100876.97;5358845;32;35369;-75
2022/11/25 15:50:34;;;;;;;;;;;;;;;11.83;56.45;100887.03;5362931;32;44864;-73
2022/11/25 15:53:37;;;;;;;;;;;;;;;11.70;56.90;100877.84;5352477;32;34644;-64
2022/11/25 15:56:43;;;;;;;;;;;;;;;11.51;57.44;100881.13;5368197;32;35729;-71
2022/11/25 15:59:55;;;;;;;;;;;;;;;11.70;56.47;100883.94;5351460;32;35167;-64
2022/11/25 16:02:57;;;;;;;;;;;;;;;11.91;55.51;100888.50;5379833;32;34719;-67
2022/11/25 16:05:59;;;;;;;;;;;;;;;10.76;58.86;100888.03;5348607;32;34988;-73
2022/11/25 16:09:01;;;;;;;;;;;;;;;9.22;63.62;100891.53;5332368;32;38593;-64
2022/11/25 16:12:04;;;;;;;;;;;;;;;9.52;63.39;100896.00;5350482;32;35395;-74